Flight Track Log - Related Links

Times and Time Zones

All times are in EDT time to prevent confusion due to time zone crossing. See the AAY826 flight status page for this flight to view local times or setup timezone preferences in your user account.

Time Position Orientation Groundspeed Altitude Reporting Facility
EDT Latitude Longitude Course Direction KTS MPH feet Rate Location/Type
Sat 07:42:47 AM 27.9000 -82.6833 181° South 176 203 700  Level Tampa TRACON
Sat 07:44:27 AM 27.8056 -82.6861 181° South 233 268 4,400 2,026 Climbing Jacksonville Center
Sat 07:45:18 AM 27.7911 -82.7367 252° West 244 281 5,800 1,929 Climbing Miami Center
Sat 07:46:19 AM 27.8508 -82.7744 331° Northwest 283 326 8,000 2,361 Climbing Miami Center
Sat 07:47:20 AM 27.9236 -82.7350 26° Northeast 290 334 10,600 2,262 Climbing Miami Center
Sat 07:48:21 AM 28.0264 -82.7069 14° North 323 372 12,600 1,636 Climbing Miami Center
Sat 07:49:21 AM 28.1314 -82.7011 North 362 417 13,900 1,636 Climbing Miami Center
Sat 07:50:22 AM 28.2525 -82.6933 North 418 481 15,900 1,967 Climbing Miami Center
Sat 07:51:23 AM 28.3761 -82.6847 North 442 509 17,900 2,115 Climbing Miami Center
Sat 07:52:24 AM 28.5008 -82.6778 North 443 510 20,200 1,869 Climbing Miami Center
Sat 07:53:25 AM 28.6250 -82.6706 North 453 521 21,700 1,770 Climbing Miami Center
Sat 07:54:26 AM 28.7533 -82.6622 North 461 531 23,800 2,066 Climbing Miami Center
Sat 07:55:27 AM 28.8797 -82.6553 North 460 529 25,900 1,082 Climbing Miami Center
Sat 07:56:28 AM 29.0108 -82.6475 North 467 537 26,000 98 Climbing Miami Center
Sat 07:57:29 AM 29.1461 -82.6378 North 483 556 26,100 1,033 Climbing Miami Center
Sat 07:58:30 AM 29.2794 -82.6300 North 485 558 28,100 1,678 Climbing Miami Center
Sat 07:59:27 AM 29.4081 -82.6208 North 476 548 29,400 1,128 Climbing Jacksonville Center
Sat 08:00:27 AM 29.5417 -82.6133 North 471 542 30,300 750 Climbing Jacksonville Center
Sat 08:01:27 AM 29.6753 -82.6033 North 476 548 30,900 1,000 Climbing Jacksonville Center
Sat 08:02:27 AM 29.8111 -82.5933 North 481 554 32,300 1,000 Climbing Jacksonville Center
Sat 08:03:27 AM 29.9425 -82.5858 North 476 548 32,900 350 Climbing Jacksonville Center
Sat 08:04:27 AM 30.0825 -82.5828 North 465 535 33,000 50 Climbing Jacksonville Center
Sat 08:05:27 AM 30.1950 -82.5731 North 454 522 33,000  Level Jacksonville Center
Sat 08:06:27 AM 30.3225 -82.5678 North 454 522 33,000  Level Jacksonville Center
Sat 08:07:27 AM 30.4478 -82.5600 North 454 522 33,000 -50 Level Jacksonville Center
Sat 08:08:27 AM 30.5772 -82.5522 North 459 528 32,900 -50 Descending Jacksonville Center
Sat 08:09:27 AM 30.7067 -82.5469 North 459 528 32,900 50 Level Jacksonville Center
Sat 08:10:27 AM 30.8339 -82.5417 North 459 528 33,000 50 Climbing Jacksonville Center
Sat 08:11:27 AM 30.9614 -82.5364 North 454 522 33,000  Level Jacksonville Center
Sat 08:12:27 AM 31.0886 -82.5311 North 459 528 33,000  Level Jacksonville Center
Sat 08:13:27 AM 31.2181 -82.5258 North 459 528 33,000  Level Jacksonville Center
Sat 08:14:27 AM 31.3456 -82.5203 North 459 528 33,000  Level Jacksonville Center
Sat 08:15:27 AM 31.4728 -82.5103 North 459 528 33,000  Level Jacksonville Center
Sat 08:16:27 AM 31.6000 -82.4997 North 459 528 33,000  Level Jacksonville Center
Sat 08:17:27 AM 31.7253 -82.4772 North 459 528 33,000  Level Jacksonville Center
Sat 08:18:05 AM 31.8200 -82.4625 North 463 533 33,000  Level Atlanta Center
Sat 08:19:05 AM 31.9283 -82.4483 North 463 533 33,000  Level Atlanta Center
Sat 08:20:05 AM 32.0575 -82.4264 North 463 533 33,000  Level Atlanta Center
Sat 08:21:05 AM 32.1844 -82.4069 North 458 527 33,000  Level Atlanta Center
Sat 08:22:05 AM 32.3117 -82.3922 North 458 527 33,000  Level Atlanta Center
Sat 08:23:05 AM 32.4344 -82.3678 10° North 458 527 33,000  Level Atlanta Center
Sat 08:24:05 AM 32.5636 -82.3481 North 458 527 33,000  Level Atlanta Center
Sat 08:25:05 AM 32.6906 -82.3283 North 463 533 33,000  Level Atlanta Center
Sat 08:26:05 AM 32.8156 -82.3061 North 463 533 33,000  Level Atlanta Center
Sat 08:27:05 AM 32.9447 -82.2864 North 463 533 33,000  Level Atlanta Center
Sat 08:28:05 AM 33.0697 -82.2664 North 463 533 33,000  Level Atlanta Center
Sat 08:29:05 AM 33.1947 -82.2442 North 463 533 33,000  Level Atlanta Center
Sat 08:30:05 AM 33.3194 -82.2242 North 458 527 33,000  Level Atlanta Center
Sat 08:31:05 AM 33.4467 -82.2039 North 458 527 33,000  Level Atlanta Center
Sat 08:32:05 AM 33.5861 -82.1811 North 458 527 33,000  Level Atlanta Center
Sat 08:33:05 AM 33.7108 -82.1583 North 458 527 33,000 250 Level Atlanta Center
Sat 08:34:05 AM 33.8400 -82.1381 North 463 533 33,500 750 Climbing Atlanta Center
Sat 08:35:05 AM 33.9692 -82.1150 North 463 533 34,500 750 Climbing Atlanta Center
Sat 08:36:05 AM 34.0939 -82.0947 North 457 526 35,000 250 Climbing Atlanta Center
Sat 08:37:05 AM 34.2231 -82.0717 North 462 532 35,000  Level Atlanta Center
Sat 08:38:05 AM 34.3542 -82.0486 North 468 539 35,000  Level Atlanta Center
Sat 08:39:05 AM 34.4831 -82.0253 North 468 539 35,000  Level Atlanta Center
Sat 08:40:05 AM 34.6122 -82.0044 North 468 539 35,000  Level Atlanta Center
Sat 08:41:05 AM 34.7308 -81.9814 North 468 539 35,000  Level Atlanta Center
Sat 08:42:05 AM 34.8619 -81.9606 North 468 539 35,000  Level Atlanta Center
Sat 08:43:05 AM 34.9931 -81.9394 North 468 539 35,000  Level Atlanta Center
Sat 08:44:05 AM 35.1242 -81.9286 North 468 539 35,000  Level Atlanta Center
Sat 08:45:05 AM 35.2536 -81.9228 North 463 533 35,000  Level Atlanta Center
Sat 08:46:05 AM 35.3786 -81.9169 North 452 520 35,000  Level Atlanta Center
Sat 08:47:05 AM 35.5036 -81.9086 North 452 520 35,000  Level Atlanta Center
Sat 08:48:05 AM 35.6267 -81.9053 North 446 513 35,000  Level Atlanta Center
Sat 08:49:05 AM 35.7517 -81.8994 North 441 507 35,000  Level Atlanta Center
Sat 08:50:05 AM 35.8769 -81.8936 North 441 507 35,000  Level Atlanta Center
Sat 08:51:05 AM 36.0122 -81.8850 North 441 507 35,000  Level Atlanta Center
Sat 08:52:05 AM 36.1353 -81.8792 North 441 507 35,000  Level Atlanta Center
Sat 08:54:02 AM 36.3750 -81.8658 North 445 512 35,000  Level Indianapolis Center
Sat 08:55:03 AM 36.4939 -81.8606 North 435 501 35,000  Level Indianapolis Center
Sat 08:56:05 AM 36.6136 -81.8544 North 433 498 35,000  Level Indianapolis Center
Sat 08:57:06 AM 36.7336 -81.8483 North 433 498 35,000  Level Indianapolis Center
Sat 08:58:08 AM 36.8544 -81.8419 North 433 498 35,000  Level Indianapolis Center
Sat 08:59:09 AM 36.9731 -81.8375 North 432 497 35,000  Level Indianapolis Center
Sat 09:00:11 AM 37.1094 -81.8297 North 426 490 35,000  Level Indianapolis Center
Sat 09:01:12 AM 37.2278 -81.8244 North 425 489 35,000  Level Indianapolis Center
Sat 09:02:14 AM 37.3472 -81.8186 North 426 490 35,000  Level Indianapolis Center
Sat 09:03:15 AM 37.4689 -81.8131 North 431 496 35,000  Level Indianapolis Center
Sat 09:04:17 AM 37.5861 -81.8386 350° North 427 491 35,000 -732 Level Indianapolis Center
Sat 09:05:18 AM 37.7050 -81.8703 348° North 434 499 33,500 -1,659 Descending Indianapolis Center
Sat 09:06:20 AM 37.8225 -81.8994 349° North 434 499 31,600 -1,220 Descending Indianapolis Center
Sat 09:07:21 AM 37.9514 -81.9319 349° North 433 498 31,000 -293 Descending Indianapolis Center
Sat 09:08:23 AM 38.0689 -81.9622 349° North 432 497 31,000  Level Indianapolis Center
Sat 09:09:25 AM 38.1867 -81.9917 349° North 431 496 31,000  Level Indianapolis Center
Sat 09:10:26 AM 38.3044 -82.0228 348° North 431 496 31,000  Level Indianapolis Center
Sat 09:11:28 AM 38.4231 -82.0536 348° North 431 496 31,000 -581 Level Indianapolis Center
Sat 09:12:30 AM 38.5411 -82.0844 348° North 431 496 29,800 -1,512 Descending Indianapolis Center
Sat 09:13:31 AM 38.6589 -82.1144 349° North 430 495 27,900 -2,634 Descending Indianapolis Center
Sat 09:14:33 AM 38.8025 -82.1525 348° North 431 496 24,400 -2,806 Descending Indianapolis Center
Sat 09:15:35 AM 38.9272 -82.1839 349° North 446 513 22,100 -2,098 Descending Indianapolis Center
Sat 09:16:36 AM 39.0472 -82.2147 349° North 444 511 20,100 -2,049 Descending Indianapolis Center
Sat 09:17:38 AM 39.1578 -82.2444 348° North 415 478 17,900 -1,984 Descending Indianapolis Center
Sat 09:18:40 AM 39.2611 -82.2711 349° North 389 448 16,000 -2,182 Descending Indianapolis Center
Sat 09:19:50 AM 39.3878 -82.3092 347° North 364 419 13,100 -2,341 Descending Indianapolis Center
Sat 09:20:43 AM 39.4675 -82.3281 350° North 361 415 11,200 -1,096 Descending Indianapolis Center
Sat 09:21:45 AM 39.5525 -82.3694 339° North 346 398 11,000 -290 Descending Indianapolis Center
Sat 09:22:47 AM 39.6069 -82.4661 306° West 338 389 10,600 -683 Descending Indianapolis Center
Sat 09:23:48 AM 39.6489 -82.5536 302° West 291 335 9,600 -1,512 Descending Indianapolis Center
Sat 09:24:50 AM 39.6861 -82.6331 301° West 263 303 7,500 -2,226 Descending Indianapolis Center
Sat 09:25:52 AM 39.7314 -82.7050 309° West 260 299 5,000 -2,000 Descending Indianapolis Center
Sat 09:26:53 AM 39.7892 -82.7828 314° West 254 292 3,400 -1,171 Descending Indianapolis Center
Sat 09:27:55 AM 39.8353 -82.8231 326° Northwest 219 252 2,600 -823 Descending Indianapolis Center
Sat 09:28:57 AM 39.8522 -82.8714 295° West 183 211 1,700 -732 Descending Indianapolis Center
Sat 09:29:58 AM 39.8264 -82.9153 233° Southwest 158 182 1,100 -590 Descending Indianapolis Center
Sat 09:31:00 AM 39.8138 -82.9278 293° West  Level Estimated

Login

Don't have an account? Register now (free) for customized features, flight alerts, and more!